createdAt,value
2023-05-10T00:02:01.450Z,13.21
2023-05-10T00:05:12.291Z,13.08
2023-05-10T00:08:01.230Z,12.87
2023-05-10T00:10:44.201Z,12.82
2023-05-10T00:16:23.166Z,12.95
2023-05-10T00:19:23.001Z,12.93
2023-05-10T00:22:00.878Z,12.87
2023-05-10T00:25:12.553Z,12.74
2023-05-10T00:28:11.928Z,12.83
2023-05-10T00:31:05.966Z,12.66
2023-05-10T00:34:25.284Z,12.47
2023-05-10T00:36:53.676Z,12.44
2023-05-10T00:39:31.072Z,12.10
2023-05-10T00:42:05.519Z,12.01
2023-05-10T00:45:03.575Z,12.37
2023-05-10T00:48:04.299Z,12.42
2023-05-10T00:50:46.373Z,12.29
2023-05-10T00:54:33.723Z,12.30
2023-05-10T00:57:15.359Z,12.10
2023-05-10T01:00:19.691Z,12.07
2023-05-10T01:03:20.374Z,11.84
2023-05-10T01:06:02.201Z,11.91
2023-05-10T01:09:03.652Z,11.59
2023-05-10T01:12:03.754Z,11.38
2023-05-10T01:15:30.070Z,11.48
2023-05-10T01:18:18.467Z,11.65
2023-05-10T01:20:54.661Z,11.65
2023-05-10T01:24:16.664Z,11.64
2023-05-10T01:27:28.713Z,11.47
2023-05-10T01:30:38.065Z,11.40
2023-05-10T01:33:15.252Z,11.24
2023-05-10T01:36:02.588Z,11.39
2023-05-10T01:38:38.642Z,11.82
2023-05-10T01:41:30.203Z,11.74
2023-05-10T01:44:11.578Z,11.53
2023-05-10T01:46:59.634Z,10.98
2023-05-10T01:49:47.561Z,11.84
2023-05-10T01:52:20.405Z,11.87
2023-05-10T01:54:53.038Z,11.63
2023-05-10T01:57:22.427Z,11.37
2023-05-10T02:00:01.196Z,11.37
2023-05-10T02:02:34.658Z,11.48
2023-05-10T02:05:06.836Z,11.71
2023-05-10T02:07:36.194Z,11.47
2023-05-10T02:10:05.331Z,11.25
2023-05-10T02:12:47.829Z,11.66
2023-05-10T02:15:22.362Z,11.28
2023-05-10T02:17:52.252Z,11.26
2023-05-10T02:20:35.223Z,11.46
2023-05-10T02:23:08.952Z,11.74
2023-05-10T02:28:36.020Z,11.05
2023-05-10T02:31:11.765Z,11.16
2023-05-10T02:33:43.449Z,11.20
2023-05-10T02:36:18.171Z,11.02
2023-05-10T02:38:49.804Z,10.87
2023-05-10T02:41:27.132Z,11.07
2023-05-10T02:43:59.845Z,10.60
2023-05-10T02:46:30.044Z,10.94
2023-05-10T02:48:58.372Z,11.39
2023-05-10T02:51:34.733Z,11.28
2023-05-10T02:54:09.242Z,11.09
2023-05-10T02:56:43.230Z,11.29
2023-05-10T02:59:12.197Z,11.12
2023-05-10T03:01:40.826Z,11.21
2023-05-10T03:04:10.057Z,11.12
2023-05-10T03:06:40.204Z,10.67
2023-05-10T03:09:10.390Z,10.83
2023-05-10T03:11:48.621Z,10.60
2023-05-10T03:14:24.418Z,10.76
2023-05-10T03:16:58.993Z,10.60
2023-05-10T03:19:32.220Z,10.68
2023-05-10T03:22:07.440Z,10.67
2023-05-10T03:24:37.921Z,10.84
2023-05-10T03:27:08.478Z,10.88
2023-05-10T03:29:39.434Z,11.28
2023-05-10T03:32:07.801Z,10.66
2023-05-10T03:34:37.596Z,10.41
2023-05-10T03:37:07.942Z,10.55
2023-05-10T03:39:36.503Z,10.50
2023-05-10T03:42:07.368Z,10.60
2023-05-10T03:44:35.630Z,10.60
2023-05-10T03:47:04.247Z,11.00
2023-05-10T03:49:32.605Z,10.92
2023-05-10T03:52:04.679Z,10.83
2023-05-10T03:54:34.721Z,10.76
2023-05-10T03:57:03.968Z,10.66
2023-05-10T03:59:34.758Z,10.83
2023-05-10T04:02:04.670Z,10.65
2023-05-10T04:04:33.051Z,10.58
2023-05-10T04:07:01.319Z,10.37
2023-05-10T04:09:29.529Z,10.70
2023-05-10T04:12:00.925Z,11.15
2023-05-10T04:14:30.579Z,11.13
2023-05-10T04:16:59.312Z,11.54
2023-05-10T04:19:34.889Z,11.71
2023-05-10T04:22:05.839Z,11.33
2023-05-10T04:24:34.036Z,11.70
2023-05-10T04:27:03.680Z,11.76
2023-05-10T04:29:32.054Z,12.06
2023-05-10T04:32:00.486Z,11.85
2023-05-10T04:34:28.856Z,11.77
2023-05-10T04:36:57.088Z,11.59
2023-05-10T04:39:25.318Z,11.73
2023-05-10T04:41:54.289Z,12.14
2023-05-10T04:44:23.920Z,11.80
2023-05-10T04:46:53.915Z,11.68
2023-05-10T04:49:23.561Z,11.86
2023-05-10T04:52:02.848Z,11.62
2023-05-10T04:54:31.215Z,11.78
2023-05-10T04:57:04.654Z,12.10
2023-05-10T04:59:34.434Z,12.05
2023-05-10T05:02:09.447Z,12.12
2023-05-10T05:04:38.239Z,12.01
2023-05-10T05:07:09.034Z,12.02
2023-05-10T05:09:43.191Z,12.07
2023-05-10T05:12:15.096Z,12.37
2023-05-10T05:14:46.440Z,12.47
2023-05-10T05:17:22.637Z,12.58
2023-05-10T05:19:51.397Z,13.09
2023-05-10T05:22:20.515Z,12.99
2023-05-10T05:24:48.624Z,12.62
2023-05-10T05:27:16.963Z,12.35
2023-05-10T05:29:47.205Z,12.24
2023-05-10T05:32:15.470Z,12.67
2023-05-10T05:34:44.054Z,12.76
2023-05-10T05:37:15.222Z,12.48
2023-05-10T05:39:44.499Z,13.11
2023-05-10T05:42:13.481Z,13.23
2023-05-10T05:44:42.065Z,13.27
2023-05-10T05:47:16.414Z,13.86
2023-05-10T05:49:48.166Z,13.40
2023-05-10T05:52:18.742Z,13.64
2023-05-10T05:54:47.061Z,13.26
2023-05-10T05:57:17.748Z,13.61
2023-05-10T05:59:46.756Z,13.91
2023-05-10T06:02:16.929Z,14.51
2023-05-10T06:04:46.549Z,14.66
2023-05-10T06:07:14.985Z,15.28
2023-05-10T06:09:43.563Z,15.47
2023-05-10T06:12:14.233Z,15.86
2023-05-10T06:14:42.354Z,15.99
2023-05-10T06:17:10.516Z,16.03
2023-05-10T06:19:40.121Z,16.60
2023-05-10T06:22:08.556Z,16.36
2023-05-10T06:24:37.225Z,16.22
2023-05-10T06:27:05.480Z,16.00
2023-05-10T06:29:33.695Z,16.49
2023-05-10T06:32:02.275Z,16.54
2023-05-10T06:34:30.549Z,16.95
2023-05-10T06:37:00.123Z,16.84
2023-05-10T06:39:28.484Z,16.68
2023-05-10T06:41:56.688Z,16.99
2023-05-10T06:44:25.044Z,17.13
2023-05-10T06:46:54.542Z,17.15
2023-05-10T06:49:22.739Z,17.43
2023-05-10T06:51:50.919Z,17.72
2023-05-10T06:54:21.161Z,17.88
2023-05-10T06:56:49.411Z,18.00
2023-05-10T06:59:18.225Z,18.13
2023-05-10T07:01:46.601Z,18.41
2023-05-10T07:04:14.897Z,18.90
2023-05-10T07:06:43.190Z,19.12
2023-05-10T07:09:11.408Z,19.56
2023-05-10T07:11:41.039Z,19.53
2023-05-10T07:14:09.337Z,19.02
2023-05-10T07:16:37.609Z,18.67
2023-05-10T07:19:06.829Z,18.19
2023-05-10T07:21:36.181Z,18.44
2023-05-10T07:24:04.667Z,19.36
2023-05-10T07:26:32.943Z,19.17
2023-05-10T07:29:03.487Z,19.35
2023-05-10T07:31:31.709Z,19.29
2023-05-10T07:34:00.067Z,19.50
2023-05-10T07:36:28.862Z,19.31
2023-05-10T07:38:58.455Z,19.42
2023-05-10T07:41:27.030Z,19.14
2023-05-10T07:43:55.262Z,19.78
2023-05-10T07:46:24.922Z,19.79
2023-05-10T07:48:53.161Z,19.71
2023-05-10T07:51:21.285Z,19.97
2023-05-10T07:53:49.486Z,20.07
2023-05-10T07:56:26.213Z,20.53
2023-05-10T07:58:54.366Z,20.82
2023-05-10T08:01:24.254Z,20.76
2023-05-10T08:03:54.316Z,20.76
2023-05-10T08:06:23.233Z,21.29
2023-05-10T08:08:51.758Z,21.23
2023-05-10T08:11:21.527Z,21.82
2023-05-10T08:13:51.133Z,21.23
2023-05-10T08:16:19.477Z,21.74
2023-05-10T08:18:50.270Z,22.01
2023-05-10T08:21:18.486Z,22.23
2023-05-10T08:23:46.736Z,21.86
2023-05-10T08:26:14.956Z,21.91
2023-05-10T08:28:43.215Z,21.88
2023-05-10T08:31:13.668Z,21.85
2023-05-10T08:33:43.768Z,22.13
2023-05-10T08:36:15.249Z,22.37
2023-05-10T08:38:43.930Z,22.13
2023-05-10T08:41:12.491Z,22.29
2023-05-10T08:43:42.573Z,22.43
2023-05-10T08:46:12.350Z,22.35
2023-05-10T08:48:41.266Z,22.59
2023-05-10T08:51:10.621Z,22.40
2023-05-10T08:53:40.286Z,22.33
2023-05-10T08:56:09.211Z,22.87
2023-05-10T08:58:37.794Z,22.50
2023-05-10T09:01:06.662Z,22.38
2023-05-10T09:03:34.846Z,22.79
2023-05-10T09:06:03.681Z,23.24
2023-05-10T09:08:32.231Z,23.72
2023-05-10T09:11:04.072Z,23.78
2023-05-10T09:13:32.607Z,24.13
2023-05-10T09:16:09.877Z,23.59
2023-05-10T09:18:42.151Z,22.95
2023-05-10T09:21:11.054Z,22.92
2023-05-10T09:23:39.224Z,23.26
2023-05-10T09:26:09.878Z,22.91
2023-05-10T09:28:53.694Z,23.30
2023-05-10T09:31:22.001Z,23.71
2023-05-10T09:33:51.517Z,24.58
2023-05-10T09:36:19.798Z,25.04
2023-05-10T09:38:49.124Z,23.70
2023-05-10T09:41:26.120Z,24.02
2023-05-10T09:43:58.266Z,23.70
2023-05-10T09:46:27.073Z,23.98
2023-05-10T09:48:55.796Z,24.00
2023-05-10T09:51:27.897Z,24.33
2023-05-10T09:54:11.797Z,24.41
2023-05-10T09:56:41.927Z,24.51
2023-05-10T09:59:11.652Z,24.78
2023-05-10T10:01:40.380Z,23.30
2023-05-10T10:04:11.075Z,22.73
2023-05-10T10:06:39.804Z,23.96
2023-05-10T10:09:08.805Z,24.23
2023-05-10T10:11:40.048Z,25.05
2023-05-10T10:14:10.010Z,24.30
2023-05-10T10:16:45.831Z,25.51
2023-05-10T10:19:20.754Z,25.97
2023-05-10T10:21:48.945Z,25.68
2023-05-10T10:24:17.235Z,25.78
2023-05-10T10:26:45.843Z,25.19
2023-05-10T10:29:23.350Z,25.95
2023-05-10T10:31:59.695Z,25.77
2023-05-10T10:34:30.022Z,25.72
2023-05-10T10:36:59.401Z,25.97
2023-05-10T10:39:27.731Z,26.25
2023-05-10T10:41:57.496Z,25.53
2023-05-10T10:44:35.994Z,25.00
2023-05-10T10:47:09.467Z,26.50
2023-05-10T10:50:08.548Z,25.80
2023-05-10T10:52:38.467Z,26.11
2023-05-10T10:55:09.495Z,25.59
2023-05-10T10:57:46.897Z,25.65
2023-05-10T11:00:28.937Z,25.00
2023-05-10T11:03:03.038Z,25.31
2023-05-10T11:05:42.573Z,25.43
2023-05-10T11:08:19.190Z,25.73
2023-05-10T11:11:10.994Z,25.46
2023-05-10T11:13:47.249Z,25.07
2023-05-10T11:16:21.350Z,25.50
2023-05-10T11:19:04.036Z,25.47
2023-05-10T11:21:33.654Z,24.37
2023-05-10T11:24:07.019Z,24.54
2023-05-10T11:26:37.702Z,24.66
2023-05-10T11:29:07.418Z,24.19
2023-05-10T11:31:37.557Z,23.22
2023-05-10T11:34:06.729Z,23.09
2023-05-10T11:36:36.819Z,22.62
2023-05-10T11:39:05.741Z,22.22
2023-05-10T11:41:34.327Z,22.48
2023-05-10T11:44:02.650Z,22.92
2023-05-10T11:46:31.269Z,23.23
2023-05-10T11:49:05.316Z,23.44
2023-05-10T11:51:36.796Z,23.24
2023-05-10T11:54:09.692Z,23.69
2023-05-10T11:56:46.146Z,23.49
2023-05-10T11:59:16.923Z,23.28
2023-05-10T12:01:45.943Z,23.38
2023-05-10T12:04:16.020Z,22.99
2023-05-10T12:06:47.625Z,22.94
2023-05-10T12:09:19.214Z,22.97
2023-05-10T12:11:51.556Z,23.24
2023-05-10T12:14:20.971Z,23.34
2023-05-10T12:16:49.929Z,23.34
2023-05-10T12:19:22.173Z,23.17
2023-05-10T12:21:50.610Z,23.12
2023-05-10T12:24:20.597Z,23.06
2023-05-10T12:26:49.443Z,23.09
2023-05-10T12:29:19.070Z,22.48
2023-05-10T12:31:54.931Z,22.07
2023-05-10T12:34:36.520Z,21.89
2023-05-10T12:37:05.647Z,21.74
2023-05-10T12:39:41.806Z,21.48
2023-05-10T12:42:11.013Z,21.92
2023-05-10T12:44:39.665Z,21.98
2023-05-10T12:47:07.988Z,22.11
2023-05-10T12:49:37.603Z,21.94
2023-05-10T12:52:06.125Z,21.70
2023-05-10T12:54:34.349Z,21.70
2023-05-10T12:57:03.288Z,21.98
2023-05-10T12:59:32.692Z,22.10
2023-05-10T13:02:01.854Z,21.95
2023-05-10T13:04:30.151Z,22.33
2023-05-10T13:07:00.538Z,22.33
2023-05-10T13:09:30.411Z,22.41
2023-05-10T13:11:58.900Z,22.72
2023-05-10T13:14:27.434Z,23.00
2023-05-10T13:16:58.914Z,22.87
2023-05-10T13:19:30.716Z,22.97
2023-05-10T13:22:00.522Z,22.81
2023-05-10T13:24:28.913Z,22.77
2023-05-10T13:26:57.291Z,22.58
2023-05-10T13:29:25.679Z,22.43
2023-05-10T13:31:54.455Z,21.94
2023-05-10T13:34:23.900Z,21.74
2023-05-10T13:36:53.971Z,21.61
2023-05-10T13:39:23.912Z,21.35
2023-05-10T13:41:53.283Z,21.62
2023-05-10T13:44:22.767Z,21.78
2023-05-10T13:46:51.129Z,22.22
2023-05-10T13:49:20.092Z,22.31
2023-05-10T13:51:48.485Z,22.33
2023-05-10T13:54:18.505Z,22.94
2023-05-10T13:56:49.617Z,23.24
2023-05-10T13:59:18.327Z,23.06
2023-05-10T14:01:47.900Z,23.32
2023-05-10T14:04:16.932Z,23.29
2023-05-10T14:06:45.928Z,23.11
2023-05-10T14:09:15.170Z,23.47
2023-05-10T14:11:44.362Z,23.45
2023-05-10T14:14:17.309Z,23.41
2023-05-10T14:16:48.755Z,23.30
2023-05-10T14:19:18.916Z,23.33
2023-05-10T14:21:52.283Z,23.37
2023-05-10T14:24:20.748Z,23.29
2023-05-10T14:26:48.989Z,22.99
2023-05-10T14:29:20.525Z,22.68
2023-05-10T14:31:49.282Z,22.71
2023-05-10T14:34:18.146Z,22.73
2023-05-10T14:36:49.902Z,22.83
2023-05-10T14:39:18.404Z,22.52
2023-05-10T14:41:48.215Z,23.00
2023-05-10T14:44:19.081Z,23.48
2023-05-10T14:46:49.417Z,23.47
2023-05-10T14:49:17.797Z,23.42
2023-05-10T14:51:47.086Z,23.52
2023-05-10T14:54:16.279Z,24.10
2023-05-10T14:56:46.524Z,23.93
2023-05-10T14:59:15.574Z,24.25
2023-05-10T15:01:45.903Z,24.66
2023-05-10T15:04:17.733Z,24.84
2023-05-10T15:06:47.224Z,25.21
2023-05-10T15:09:17.097Z,25.43
2023-05-10T15:11:47.465Z,25.36
2023-05-10T15:14:15.995Z,25.25
2023-05-10T15:16:45.987Z,24.91
2023-05-10T15:19:14.795Z,24.55
2023-05-10T15:21:45.602Z,24.31
2023-05-10T15:24:15.649Z,24.27
2023-05-10T15:26:48.424Z,23.51
2023-05-10T15:29:23.165Z,23.57
2023-05-10T15:31:53.307Z,23.64
2023-05-10T15:37:38.595Z,23.78
2023-05-10T15:40:12.143Z,24.07
2023-05-10T15:52:47.712Z,25.33
2023-05-10T15:55:19.104Z,25.51
2023-05-10T15:57:50.476Z,25.04
2023-05-10T16:00:21.678Z,24.73
2023-05-10T16:02:49.996Z,24.76
2023-05-10T16:05:20.009Z,24.49
2023-05-10T16:07:49.236Z,24.53
2023-05-10T16:10:17.511Z,24.26
2023-05-10T16:12:47.675Z,23.88
2023-05-10T16:15:16.552Z,23.70
2023-05-10T16:17:45.500Z,23.04
2023-05-10T16:20:14.118Z,23.10
2023-05-10T16:22:44.850Z,22.99
2023-05-10T16:25:19.019Z,23.04
2023-05-10T16:27:48.560Z,22.89
2023-05-10T16:30:17.642Z,22.83
2023-05-10T16:32:47.642Z,22.55
2023-05-10T16:35:16.897Z,22.78
2023-05-10T16:37:47.327Z,22.30
2023-05-10T16:40:18.006Z,21.81
2023-05-10T16:42:47.297Z,21.79
2023-05-10T16:45:17.682Z,21.84
2023-05-10T16:47:47.065Z,21.94
2023-05-10T16:50:17.547Z,22.01
2023-05-10T16:52:49.497Z,21.61
2023-05-10T16:55:19.886Z,21.68
2023-05-10T16:57:48.954Z,21.71
2023-05-10T17:00:21.189Z,21.69
2023-05-10T17:02:50.408Z,21.67
2023-05-10T17:05:19.950Z,21.71
2023-05-10T17:07:51.078Z,21.51
2023-05-10T17:10:20.514Z,21.59
2023-05-10T17:12:49.837Z,21.58
2023-05-10T17:15:19.944Z,21.52
2023-05-10T17:17:49.423Z,21.58
2023-05-10T17:20:18.700Z,21.56
2023-05-10T17:22:47.828Z,21.53
2023-05-10T17:25:18.746Z,21.53
2023-05-10T17:27:48.330Z,21.68
2023-05-10T17:30:17.588Z,21.51
2023-05-10T17:32:46.872Z,21.24
2023-05-10T17:35:16.355Z,21.05
2023-05-10T17:37:45.828Z,21.11
2023-05-10T17:40:15.068Z,20.90
2023-05-10T17:42:47.966Z,20.94
2023-05-10T17:45:17.655Z,20.95
2023-05-10T17:47:47.058Z,20.79
2023-05-10T17:50:16.431Z,20.73
2023-05-10T17:52:45.610Z,20.74
2023-05-10T17:55:15.384Z,20.75
2023-05-10T17:57:46.687Z,20.81
2023-05-10T18:00:17.477Z,20.81
2023-05-10T18:02:46.932Z,20.82
2023-05-10T18:05:16.482Z,21.02
2023-05-10T18:07:47.883Z,20.62
2023-05-10T18:10:17.178Z,20.44
2023-05-10T18:12:47.893Z,20.32
2023-05-10T18:15:17.576Z,20.34
2023-05-10T18:17:46.883Z,20.30
2023-05-10T18:20:16.156Z,20.38
2023-05-10T18:22:45.387Z,20.18
2023-05-10T18:25:14.860Z,20.10
2023-05-10T18:27:52.748Z,19.98
2023-05-10T18:30:33.285Z,19.91
2023-05-10T18:33:32.168Z,19.87
2023-05-10T18:36:09.896Z,19.77
2023-05-10T18:38:43.623Z,19.62
2023-05-10T18:41:17.016Z,19.73
2023-05-10T18:43:47.044Z,19.74
2023-05-10T18:46:25.423Z,19.74
2023-05-10T18:48:56.421Z,19.59
2023-05-10T18:51:31.551Z,19.28
2023-05-10T18:54:05.787Z,19.38
2023-05-10T18:57:07.981Z,19.44
2023-05-10T18:59:42.305Z,19.38
2023-05-10T19:02:19.288Z,19.50
2023-05-10T19:05:17.273Z,19.37
2023-05-10T19:07:55.287Z,19.37
2023-05-10T19:10:24.911Z,19.26
2023-05-10T19:12:54.230Z,19.15
2023-05-10T19:15:24.053Z,19.13
2023-05-10T19:17:58.405Z,19.07
2023-05-10T19:20:27.672Z,19.08
2023-05-10T19:23:09.067Z,18.85
2023-05-10T19:25:41.015Z,18.90
2023-05-10T19:28:11.889Z,18.89
2023-05-10T19:30:43.481Z,18.82
2023-05-10T19:33:14.449Z,18.87
2023-05-10T19:35:43.782Z,18.83
2023-05-10T19:38:12.990Z,18.86
2023-05-10T19:40:42.218Z,18.96
2023-05-10T19:43:11.554Z,19.00
2023-05-10T19:45:41.052Z,19.11
2023-05-10T19:48:15.002Z,19.06
2023-05-10T19:50:47.912Z,18.72
2023-05-10T19:53:17.203Z,18.74
2023-05-10T19:55:46.651Z,18.67
2023-05-10T19:58:15.850Z,18.74
2023-05-10T20:00:45.379Z,18.79
2023-05-10T20:03:14.754Z,18.74
2023-05-10T20:05:45.635Z,18.60
2023-05-10T20:08:15.744Z,18.75
2023-05-10T20:10:46.815Z,18.72
2023-05-10T20:13:16.393Z,18.55
2023-05-10T20:15:45.730Z,18.69
2023-05-10T20:18:15.091Z,18.53
2023-05-10T20:20:46.963Z,18.53
2023-05-10T20:23:16.836Z,18.67
2023-05-10T20:25:46.433Z,18.98
2023-05-10T20:28:16.641Z,18.68
2023-05-10T20:30:45.949Z,18.48
2023-05-10T20:33:18.207Z,18.63
2023-05-10T20:35:50.495Z,18.45
2023-05-10T20:38:20.253Z,18.49
2023-05-10T20:40:49.792Z,18.39
2023-05-10T20:43:19.555Z,18.49
2023-05-10T20:45:49.205Z,18.51
2023-05-10T20:48:20.260Z,18.44
2023-05-10T20:50:52.739Z,18.41
2023-05-10T20:53:22.324Z,18.17
2023-05-10T20:55:52.991Z,18.40
2023-05-10T20:58:23.041Z,18.39
2023-05-10T21:00:53.149Z,18.16
2023-05-10T21:03:21.455Z,18.46
2023-05-10T21:05:51.418Z,18.46
2023-05-10T21:08:19.690Z,18.39
2023-05-10T21:10:48.086Z,18.57
2023-05-10T21:13:19.672Z,18.68
2023-05-10T21:15:48.446Z,18.61
2023-05-10T21:18:16.971Z,18.49
2023-05-10T21:20:45.320Z,18.55
2023-05-10T21:23:15.109Z,18.42
2023-05-10T21:25:44.407Z,18.39
2023-05-10T21:28:15.241Z,18.37
2023-05-10T21:30:55.625Z,18.07
2023-05-10T21:33:27.653Z,18.34
2023-05-10T21:35:55.927Z,18.28
2023-05-10T21:38:25.821Z,18.10
2023-05-10T21:40:54.095Z,18.22
2023-05-10T21:43:22.346Z,18.28
2023-05-10T21:45:50.863Z,18.22
2023-05-10T21:48:19.092Z,18.36
2023-05-10T21:50:48.194Z,18.23
2023-05-10T21:53:16.450Z,18.63
2023-05-10T21:55:47.175Z,18.49
2023-05-10T21:58:15.644Z,18.55
2023-05-10T22:00:44.429Z,19.08
2023-05-10T22:03:13.514Z,19.14
2023-05-10T22:05:41.839Z,19.09
2023-05-10T22:08:09.978Z,19.08
2023-05-10T22:10:38.236Z,18.51
2023-05-10T22:13:07.997Z,18.78
2023-05-10T22:15:36.979Z,19.22
2023-05-10T22:18:06.084Z,18.81
2023-05-10T22:20:36.254Z,18.76
2023-05-10T22:23:04.577Z,18.82
2023-05-10T22:25:32.892Z,18.82
2023-05-10T22:28:01.887Z,18.98
2023-05-10T22:30:33.048Z,18.59
2023-05-10T22:33:01.751Z,18.53
2023-05-10T22:35:30.696Z,17.91
2023-05-10T22:37:59.226Z,17.95
2023-05-10T22:40:27.949Z,17.87
2023-05-10T22:42:56.552Z,18.03
2023-05-10T22:45:25.131Z,18.26
2023-05-10T22:47:54.744Z,17.79
2023-05-10T22:50:25.683Z,17.80
2023-05-10T22:52:54.986Z,18.13
2023-05-10T22:55:23.757Z,17.85
2023-05-10T22:57:55.948Z,17.32
2023-05-10T23:00:26.504Z,17.82
2023-05-10T23:02:57.809Z,17.66
2023-05-10T23:05:26.850Z,17.58
2023-05-10T23:07:55.619Z,17.37
2023-05-10T23:10:24.375Z,17.46
2023-05-10T23:12:52.747Z,17.41
2023-05-10T23:15:20.926Z,17.39
2023-05-10T23:17:49.230Z,17.54
2023-05-10T23:20:19.389Z,17.24
2023-05-10T23:22:48.114Z,17.45
2023-05-10T23:25:17.040Z,17.73
2023-05-10T23:27:45.340Z,17.32
2023-05-10T23:30:14.045Z,17.87
2023-05-10T23:32:42.310Z,17.87
2023-05-10T23:35:10.987Z,18.03
2023-05-10T23:37:42.073Z,18.03
2023-05-10T23:40:11.203Z,17.74
2023-05-10T23:42:39.500Z,17.68
2023-05-10T23:45:08.333Z,17.15
2023-05-10T23:47:36.528Z,16.94
2023-05-10T23:50:05.354Z,17.08
2023-05-10T23:52:33.658Z,17.34
2023-05-10T23:55:03.300Z,17.09
2023-05-10T23:57:31.529Z,17.54
2023-05-10T23:59:59.771Z,16.91
